sensor_id;sensor_type;location;lat;lon;timestamp;pressure;altitude;pressure_sealevel;temperature;humidity
16431;BME280;8325;49.284;7.238;2022-10-18T04:03:33;99630.81;;;15.00;100.00
16431;BME280;8325;49.284;7.238;2022-10-18T04:07:45;99647.41;;;15.00;100.00
16431;BME280;8325;49.284;7.238;2022-10-18T04:11:57;99653.66;;;14.99;100.00
16431;BME280;8325;49.284;7.238;2022-10-18T04:16:08;99653.19;;;14.95;100.00
16431;BME280;8325;49.284;7.238;2022-10-18T04:20:20;99655.13;;;15.02;100.00
16431;BME280;8325;49.284;7.238;2022-10-18T04:24:31;99652.78;;;15.07;100.00
16431;BME280;8325;49.284;7.238;2022-10-18T04:28:43;99649.75;;;15.18;100.00
16431;BME280;8325;49.284;7.238;2022-10-18T04:32:55;99656.59;;;15.27;100.00
16431;BME280;8325;49.284;7.238;2022-10-18T04:37:07;99649.59;;;15.34;100.00
16431;BME280;8325;49.284;7.238;2022-10-18T04:41:18;99662.41;;;15.37;100.00
16431;BME280;8325;49.284;7.238;2022-10-18T04:45:30;99665.16;;;15.44;100.00
16431;BME280;8325;49.284;7.238;2022-10-18T04:49:41;99659.72;;;15.46;100.00
16431;BME280;8325;49.284;7.238;2022-10-18T04:53:53;99655.06;;;15.48;100.00
16431;BME280;8325;49.284;7.238;2022-10-18T04:58:05;99643.56;;;15.49;100.00
16431;BME280;8325;49.284;7.238;2022-10-18T05:02:16;99629.41;;;15.50;100.00
16431;BME280;8325;49.284;7.238;2022-10-18T05:06:28;99618.50;;;15.53;100.00
16431;BME280;8325;49.284;7.238;2022-10-18T05:10:39;99612.59;;;15.51;100.00
16431;BME280;8325;49.284;7.238;2022-10-18T05:14:51;99608.03;;;15.45;100.00
16431;BME280;8325;49.284;7.238;2022-10-18T05:19:03;99626.47;;;15.45;100.00
16431;BME280;8325;49.284;7.238;2022-10-18T05:23:16;99636.75;;;15.39;100.00
16431;BME280;8325;49.284;7.238;2022-10-18T05:27:27;99651.06;;;15.37;100.00
16431;BME280;8325;49.284;7.238;2022-10-18T05:31:39;99663.78;;;15.33;100.00
16431;BME280;8325;49.284;7.238;2022-10-18T05:35:51;99663.78;;;15.33;100.00
16431;BME280;8325;49.284;7.238;2022-10-18T05:40:03;99672.28;;;15.35;100.00
16431;BME280;8325;49.284;7.238;2022-10-18T05:44:14;99667.84;;;15.36;100.00
16431;BME280;8325;49.284;7.238;2022-10-18T05:48:26;99668.69;;;15.36;100.00
16431;BME280;8325;49.284;7.238;2022-10-18T05:52:37;99684.84;;;15.33;100.00
16431;BME280;8325;49.284;7.238;2022-10-18T05:56:49;99674.31;;;15.33;100.00
16431;BME280;8325;49.284;7.238;2022-10-18T06:01:01;99685.66;;;15.34;100.00
16431;BME280;8325;49.284;7.238;2022-10-18T06:05:13;99686.28;;;15.36;100.00
16431;BME280;8325;49.284;7.238;2022-10-18T06:09:25;99694.66;;;15.39;100.00
16431;BME280;8325;49.284;7.238;2022-10-18T06:13:44;99695.94;;;15.43;100.00
16431;BME280;8325;49.284;7.238;2022-10-18T06:17:57;99703.47;;;15.47;100.00
16431;BME280;8325;49.284;7.238;2022-10-18T06:22:10;99701.50;;;15.49;100.00
16431;BME280;8325;49.284;7.238;2022-10-18T06:26:22;99696.13;;;15.57;100.00
16431;BME280;8325;49.284;7.238;2022-10-18T06:30:33;99703.31;;;15.63;100.00
16431;BME280;8325;49.284;7.238;2022-10-18T06:34:45;99702.03;;;15.67;100.00
16431;BME280;8325;49.284;7.238;2022-10-18T06:38:57;99713.19;;;15.69;100.00
16431;BME280;8325;49.284;7.238;2022-10-18T06:43:10;99713.81;;;15.71;100.00
16431;BME280;8325;49.284;7.238;2022-10-18T06:47:31;99722.53;;;15.72;100.00
16431;BME280;8325;49.284;7.238;2022-10-18T06:51:43;99728.47;;;15.74;100.00
16431;BME280;8325;49.284;7.238;2022-10-18T06:56:13;99736.81;;;15.77;100.00
16431;BME280;8325;49.284;7.238;2022-10-18T07:00:24;99735.47;;;15.81;100.00
16431;BME280;8325;49.284;7.238;2022-10-18T07:04:36;99742.66;;;15.87;100.00
16431;BME280;8325;49.284;7.238;2022-10-18T07:08:48;99749.47;;;15.97;100.00
16431;BME280;8325;49.284;7.238;2022-10-18T07:13:00;99755.50;;;16.05;100.00
16431;BME280;8325;49.284;7.238;2022-10-18T07:17:32;99752.59;;;16.15;100.00
16431;BME280;8325;49.284;7.238;2022-10-18T07:21:44;99752.41;;;16.31;100.00
16431;BME280;8325;49.284;7.238;2022-10-18T07:25:55;99761.97;;;16.47;100.00
16431;BME280;8325;49.284;7.238;2022-10-18T07:30:08;99761.13;;;16.47;100.00
16431;BME280;8325;49.284;7.238;2022-10-18T07:34:20;99765.97;;;16.43;100.00
16431;BME280;8325;49.284;7.238;2022-10-18T07:38:32;99776.94;;;16.47;100.00
16431;BME280;8325;49.284;7.238;2022-10-18T07:42:43;99771.06;;;16.45;100.00
16431;BME280;8325;49.284;7.238;2022-10-18T07:46:55;99775.31;;;16.46;100.00
16431;BME280;8325;49.284;7.238;2022-10-18T07:51:07;99779.44;;;16.48;100.00
16431;BME280;8325;49.284;7.238;2022-10-18T07:55:19;99776.94;;;16.47;100.00
16431;BME280;8325;49.284;7.238;2022-10-18T07:59:31;99777.06;;;16.53;100.00
16431;BME280;8325;49.284;7.238;2022-10-18T08:03:42;99793.97;;;16.59;100.00
16431;BME280;8325;49.284;7.238;2022-10-18T08:07:54;99796.22;;;16.62;100.00
16431;BME280;8325;49.284;7.238;2022-10-18T08:12:06;99803.16;;;16.63;100.00
16431;BME280;8325;49.284;7.238;2022-10-18T08:16:26;99812.06;;;16.62;100.00
16431;BME280;8325;49.284;7.238;2022-10-18T08:20:42;99810.88;;;16.65;100.00
16431;BME280;8325;49.284;7.238;2022-10-18T08:24:54;99797.16;;;16.69;100.00
16431;BME280;8325;49.284;7.238;2022-10-18T08:29:06;99816.38;;;16.78;100.00
16431;BME280;8325;49.284;7.238;2022-10-18T08:33:34;99820.44;;;16.80;100.00
16431;BME280;8325;49.284;7.238;2022-10-18T08:37:46;99825.38;;;16.84;100.00
16431;BME280;8325;49.284;7.238;2022-10-18T08:46:22;99831.34;;;17.07;100.00
16431;BME280;8325;49.284;7.238;2022-10-18T08:50:35;99831.63;;;17.12;99.57
16431;BME280;8325;49.284;7.238;2022-10-18T08:54:57;99834.47;;;17.32;98.94
16431;BME280;8325;49.284;7.238;2022-10-18T08:59:11;99831.66;;;17.34;98.22
16431;BME280;8325;49.284;7.238;2022-10-18T09:08:36;99829.81;;;17.49;97.62
16431;BME280;8325;49.284;7.238;2022-10-18T09:17:50;99830.75;;;17.84;95.18
16431;BME280;8325;49.284;7.238;2022-10-18T09:22:12;99834.28;;;17.91;93.77
16431;BME280;8325;49.284;7.238;2022-10-18T09:26:24;99843.28;;;17.97;94.03
16431;BME280;8325;49.284;7.238;2022-10-18T09:34:56;99835.34;;;17.97;89.94
16431;BME280;8325;49.284;7.238;2022-10-18T09:39:12;99835.09;;;18.13;90.74
16431;BME280;8325;49.284;7.238;2022-10-18T09:43:38;99826.47;;;18.33;90.79
16431;BME280;8325;49.284;7.238;2022-10-18T09:48:02;99827.38;;;18.47;89.44
16431;BME280;8325;49.284;7.238;2022-10-18T09:52:25;99838.44;;;18.57;87.62
16431;BME280;8325;49.284;7.238;2022-10-18T09:56:50;99844.31;;;18.52;87.12
16431;BME280;8325;49.284;7.238;2022-10-18T10:01:02;99842.44;;;18.46;86.74
16431;BME280;8325;49.284;7.238;2022-10-18T10:05:14;99847.09;;;18.44;87.37
16431;BME280;8325;49.284;7.238;2022-10-18T10:09:30;99844.06;;;18.47;86.84
16431;BME280;8325;49.284;7.238;2022-10-18T10:13:47;99849.34;;;18.47;85.91
16431;BME280;8325;49.284;7.238;2022-10-18T10:18:04;99852.75;;;18.41;86.04
16431;BME280;8325;49.284;7.238;2022-10-18T10:22:31;99857.09;;;18.49;86.76
16431;BME280;8325;49.284;7.238;2022-10-18T10:26:45;99861.19;;;18.51;86.08
16431;BME280;8325;49.284;7.238;2022-10-18T10:31:27;99860.41;;;18.57;86.22
16431;BME280;8325;49.284;7.238;2022-10-18T10:35:40;99855.72;;;18.59;85.15
16431;BME280;8325;49.284;7.238;2022-10-18T10:40:20;99854.44;;;18.77;84.83
16431;BME280;8325;49.284;7.238;2022-10-18T10:44:35;99844.88;;;19.24;81.69
16431;BME280;8325;49.284;7.238;2022-10-18T10:48:55;99840.47;;;19.44;82.44
16431;BME280;8325;49.284;7.238;2022-10-18T10:53:45;99843.91;;;19.38;82.29
16431;BME280;8325;49.284;7.238;2022-10-18T10:58:01;99846.97;;;19.35;81.91
16431;BME280;8325;49.284;7.238;2022-10-18T11:06:31;99852.44;;;19.27;80.82
16431;BME280;8325;49.284;7.238;2022-10-18T11:19:37;99859.63;;;19.40;80.04
16431;BME280;8325;49.284;7.238;2022-10-18T11:23:49;99850.28;;;19.64;80.72
16431;BME280;8325;49.284;7.238;2022-10-18T11:28:06;99851.53;;;19.61;79.71
16431;BME280;8325;49.284;7.238;2022-10-18T11:32:35;99847.47;;;19.65;80.15
16431;BME280;8325;49.284;7.238;2022-10-18T11:41:49;99848.66;;;19.63;80.76
16431;BME280;8325;49.284;7.238;2022-10-18T11:46:19;99850.69;;;19.61;80.98
16431;BME280;8325;49.284;7.238;2022-10-18T11:55:05;99852.25;;;19.35;79.52
16431;BME280;8325;49.284;7.238;2022-10-18T11:59:28;99844.06;;;19.30;80.68
16431;BME280;8325;49.284;7.238;2022-10-18T12:04:14;99846.06;;;19.15;80.16
16431;BME280;8325;49.284;7.238;2022-10-18T12:08:37;99834.22;;;19.04;80.96
16431;BME280;8325;49.284;7.238;2022-10-18T12:12:57;99835.81;;;18.98;81.15
16431;BME280;8325;49.284;7.238;2022-10-18T12:17:36;99835.41;;;18.95;80.32
16431;BME280;8325;49.284;7.238;2022-10-18T12:22:24;99837.16;;;18.81;82.49
16431;BME280;8325;49.284;7.238;2022-10-18T12:26:38;99833.66;;;18.74;83.25
16431;BME280;8325;49.284;7.238;2022-10-18T12:30:58;99835.28;;;18.75;83.91
16431;BME280;8325;49.284;7.238;2022-10-18T12:35:15;99820.88;;;18.84;84.25
16431;BME280;8325;49.284;7.238;2022-10-18T12:44:06;99820.56;;;19.00;83.98
16431;BME280;8325;49.284;7.238;2022-10-18T12:48:41;99821.00;;;19.11;83.97
16431;BME280;8325;49.284;7.238;2022-10-18T12:57:23;99820.56;;;19.00;84.02
16431;BME280;8325;49.284;7.238;2022-10-18T13:06:01;99809.75;;;18.95;84.36
16431;BME280;8325;49.284;7.238;2022-10-18T13:28:46;99799.53;;;18.92;84.36
16431;BME280;8325;49.284;7.238;2022-10-18T13:33:29;99803.81;;;18.93;83.64
16431;BME280;8325;49.284;7.238;2022-10-18T13:37:41;99807.09;;;18.95;83.78
16431;BME280;8325;49.284;7.238;2022-10-18T13:46:08;99818.13;;;19.05;82.69
16431;BME280;8325;49.284;7.238;2022-10-18T13:50:30;99812.44;;;19.08;82.15
16431;BME280;8325;49.284;7.238;2022-10-18T13:55:15;99808.16;;;19.07;81.78
16431;BME280;8325;49.284;7.238;2022-10-18T14:04:37;99812.81;;;18.99;81.88
16431;BME280;8325;49.284;7.238;2022-10-18T14:13:23;99822.34;;;18.93;82.42
16431;BME280;8325;49.284;7.238;2022-10-18T14:17:44;99817.91;;;18.94;82.68
16431;BME280;8325;49.284;7.238;2022-10-18T14:22:05;99823.34;;;18.85;83.11
16431;BME280;8325;49.284;7.238;2022-10-18T14:26:19;99820.69;;;18.79;83.52
16431;BME280;8325;49.284;7.238;2022-10-18T14:30:31;99822.28;;;18.73;83.18
16431;BME280;8325;49.284;7.238;2022-10-18T14:34:43;99821.47;;;18.73;82.83
16431;BME280;8325;49.284;7.238;2022-10-18T14:39:02;99824.84;;;18.67;83.33
16431;BME280;8325;49.284;7.238;2022-10-18T14:43:18;99816.09;;;18.66;82.67
16431;BME280;8325;49.284;7.238;2022-10-18T14:47:30;99821.97;;;18.61;82.83
16431;BME280;8325;49.284;7.238;2022-10-18T14:51:47;99824.22;;;18.64;82.51
16431;BME280;8325;49.284;7.238;2022-10-18T14:56:01;99824.19;;;18.58;83.19
16431;BME280;8325;49.284;7.238;2022-10-18T15:00:23;99820.34;;;18.60;83.31
16431;BME280;8325;49.284;7.238;2022-10-18T15:04:36;99816.03;;;18.59;84.30
16431;BME280;8325;49.284;7.238;2022-10-18T15:08:52;99817.59;;;18.47;85.28
16431;BME280;8325;49.284;7.238;2022-10-18T15:13:04;99815.53;;;18.43;84.90
16431;BME280;8325;49.284;7.238;2022-10-18T15:17:26;99819.56;;;18.32;84.17
16431;BME280;8325;49.284;7.238;2022-10-18T15:26:22;99824.66;;;18.05;84.46
16431;BME280;8325;49.284;7.238;2022-10-18T15:34:46;99821.00;;;17.85;84.88
16431;BME280;8325;49.284;7.238;2022-10-18T15:39:16;99826.78;;;17.74;85.29
16431;BME280;8325;49.284;7.238;2022-10-18T15:47:39;99819.41;;;17.69;85.17
16431;BME280;8325;49.284;7.238;2022-10-18T15:56:31;99818.72;;;17.60;86.29
16431;BME280;8325;49.284;7.238;2022-10-18T16:00:44;99814.38;;;17.53;86.48
16431;BME280;8325;49.284;7.238;2022-10-18T16:04:58;99817.56;;;17.48;86.84
16431;BME280;8325;49.284;7.238;2022-10-18T16:09:21;99810.53;;;17.34;87.48
16431;BME280;8325;49.284;7.238;2022-10-18T16:13:33;99818.47;;;17.34;87.38
16431;BME280;8325;49.284;7.238;2022-10-18T16:17:46;99812.16;;;17.35;87.85
16431;BME280;8325;49.284;7.238;2022-10-18T16:21:59;99817.81;;;17.32;88.25
16431;BME280;8325;49.284;7.238;2022-10-18T16:26:18;99806.28;;;17.18;89.11
16431;BME280;8325;49.284;7.238;2022-10-18T16:30:31;99810.38;;;17.20;88.86
16431;BME280;8325;49.284;7.238;2022-10-18T16:34:44;99803.84;;;17.16;89.74
16431;BME280;8325;49.284;7.238;2022-10-18T16:38:56;99804.38;;;17.12;90.06
16431;BME280;8325;49.284;7.238;2022-10-18T16:43:09;99805.41;;;17.11;90.80
16431;BME280;8325;49.284;7.238;2022-10-18T16:47:21;99810.88;;;17.09;91.15
16431;BME280;8325;49.284;7.238;2022-10-18T16:51:32;99818.78;;;17.09;92.01
16431;BME280;8325;49.284;7.238;2022-10-18T16:55:44;99817.78;;;17.10;92.23
16431;BME280;8325;49.284;7.238;2022-10-18T16:59:55;99820.59;;;17.09;92.33
16431;BME280;8325;49.284;7.238;2022-10-18T17:04:07;99826.06;;;17.07;93.05
16431;BME280;8325;49.284;7.238;2022-10-18T17:08:22;99834.72;;;17.01;92.58
16431;BME280;8325;49.284;7.238;2022-10-18T17:12:33;99838.53;;;16.98;92.99
16431;BME280;8325;49.284;7.238;2022-10-18T17:16:45;99840.00;;;16.86;94.25
16431;BME280;8325;49.284;7.238;2022-10-18T17:21:05;99836.94;;;16.83;94.96
16431;BME280;8325;49.284;7.238;2022-10-18T17:25:17;99839.47;;;16.76;94.98
16431;BME280;8325;49.284;7.238;2022-10-18T17:29:29;99835.84;;;16.77;94.85
16431;BME280;8325;49.284;7.238;2022-10-18T17:33:41;99845.56;;;16.76;95.07
16431;BME280;8325;49.284;7.238;2022-10-18T17:37:52;99850.38;;;16.73;95.34
16431;BME280;8325;49.284;7.238;2022-10-18T17:42:04;99850.28;;;16.66;95.76
16431;BME280;8325;49.284;7.238;2022-10-18T17:46:15;99848.72;;;16.57;96.22
16431;BME280;8325;49.284;7.238;2022-10-18T17:50:28;99851.63;;;16.47;95.90
16431;BME280;8325;49.284;7.238;2022-10-18T17:54:39;99849.88;;;16.40;96.10
16431;BME280;8325;49.284;7.238;2022-10-18T17:58:51;99861.50;;;16.30;95.75
16431;BME280;8325;49.284;7.238;2022-10-18T18:03:03;99856.13;;;16.24;96.46
16431;BME280;8325;49.284;7.238;2022-10-18T18:07:14;99857.31;;;16.21;97.23
16431;BME280;8325;49.284;7.238;2022-10-18T18:11:26;99868.91;;;16.12;98.25
16431;BME280;8325;49.284;7.238;2022-10-18T18:15:39;99867.66;;;16.08;97.96
16431;BME280;8325;49.284;7.238;2022-10-18T18:19:50;99869.97;;;16.03;98.15
16431;BME280;8325;49.284;7.238;2022-10-18T18:24:02;99865.88;;;16.00;99.43
16431;BME280;8325;49.284;7.238;2022-10-18T18:28:13;99862.78;;;15.97;99.74
16431;BME280;8325;49.284;7.238;2022-10-18T18:32:25;99869.41;;;15.93;100.00
16431;BME280;8325;49.284;7.238;2022-10-18T18:36:37;99867.41;;;15.95;99.78
16431;BME280;8325;49.284;7.238;2022-10-18T18:40:49;99869.06;;;15.96;98.96
16431;BME280;8325;49.284;7.238;2022-10-18T18:45:01;99862.13;;;15.95;98.93
16431;BME280;8325;49.284;7.238;2022-10-18T18:49:12;99867.41;;;15.95;99.92
16431;BME280;8325;49.284;7.238;2022-10-18T18:53:24;99858.06;;;15.92;100.00
16431;BME280;8325;49.284;7.238;2022-10-18T18:57:40;99867.41;;;15.95;99.70
16431;BME280;8325;49.284;7.238;2022-10-18T19:01:51;99862.84;;;15.88;100.00
16431;BME280;8325;49.284;7.238;2022-10-18T19:06:05;99863.69;;;15.89;100.00
16431;BME280;8325;49.284;7.238;2022-10-18T19:10:17;99859.94;;;15.83;99.97
16431;BME280;8325;49.284;7.238;2022-10-18T19:14:28;99864.25;;;15.76;100.00
16431;BME280;8325;49.284;7.238;2022-10-18T19:18:40;99863.31;;;15.69;100.00
16431;BME280;8325;49.284;7.238;2022-10-18T19:22:51;99863.31;;;15.69;98.94
16431;BME280;8325;49.284;7.238;2022-10-18T19:27:06;99863.00;;;15.64;100.00
16431;BME280;8325;49.284;7.238;2022-10-18T19:31:23;99852.28;;;15.65;100.00
16431;BME280;8325;49.284;7.238;2022-10-18T19:35:34;99851.16;;;15.60;100.00
16431;BME280;8325;49.284;7.238;2022-10-18T19:39:46;99854.13;;;15.57;100.00
16431;BME280;8325;49.284;7.238;2022-10-18T19:43:57;99856.41;;;15.60;100.00
16431;BME280;8325;49.284;7.238;2022-10-18T19:48:09;99857.88;;;15.62;100.00
16431;BME280;8325;49.284;7.238;2022-10-18T19:52:23;99850.34;;;15.59;100.00
16431;BME280;8325;49.284;7.238;2022-10-18T19:56:35;99854.25;;;15.63;100.00
16431;BME280;8325;49.284;7.238;2022-10-18T20:00:51;99854.78;;;15.67;100.00
16431;BME280;8325;49.284;7.238;2022-10-18T20:05:03;99857.44;;;15.59;100.00
16431;BME280;8325;49.284;7.238;2022-10-18T20:09:15;99858.44;;;15.58;100.00
16431;BME280;8325;49.284;7.238;2022-10-18T20:13:31;99850.34;;;15.59;100.00
16431;BME280;8325;49.284;7.238;2022-10-18T20:17:43;99852.50;;;15.56;100.00
16431;BME280;8325;49.284;7.238;2022-10-18T20:21:54;99856.50;;;15.52;100.00
16431;BME280;8325;49.284;7.238;2022-10-18T20:26:12;99851.38;;;15.50;100.00
16431;BME280;8325;49.284;7.238;2022-10-18T20:30:30;99850.31;;;15.36;100.00
16431;BME280;8325;49.284;7.238;2022-10-18T20:34:41;99851.59;;;15.40;100.00
16431;BME280;8325;49.284;7.238;2022-10-18T20:38:53;99847.03;;;15.34;100.00
16431;BME280;8325;49.284;7.238;2022-10-18T20:43:05;99842.63;;;15.27;100.00
16431;BME280;8325;49.284;7.238;2022-10-18T20:47:16;99840.84;;;15.27;100.00
16431;BME280;8325;49.284;7.238;2022-10-18T20:51:28;99849.41;;;15.21;100.00
16431;BME280;8325;49.284;7.238;2022-10-18T20:55:40;99847.41;;;15.23;100.00
16431;BME280;8325;49.284;7.238;2022-10-18T20:59:53;99845.78;;;15.22;100.00
16431;BME280;8325;49.284;7.238;2022-10-18T21:04:07;99835.59;;;15.19;100.00
16431;BME280;8325;49.284;7.238;2022-10-18T21:08:19;99836.59;;;15.18;100.00
16431;BME280;8325;49.284;7.238;2022-10-18T21:12:30;99843.50;;;15.19;100.00
16431;BME280;8325;49.284;7.238;2022-10-18T21:16:42;99841.69;;;15.19;100.00
16431;BME280;8325;49.284;7.238;2022-10-18T21:20:54;99839.25;;;15.18;100.00
16431;BME280;8325;49.284;7.238;2022-10-18T21:25:06;99841.56;;;15.13;100.00
16431;BME280;8325;49.284;7.238;2022-10-18T21:29:18;99835.63;;;15.11;100.00
